createdAt,value
2019-03-24T00:01:41.310Z,10.80
2019-03-24T00:04:10.697Z,8.77
2019-03-24T00:06:41.369Z,9.03
2019-03-24T00:09:12.223Z,10.40
2019-03-24T00:11:43.001Z,10.30
2019-03-24T00:14:13.838Z,7.63
2019-03-24T00:16:44.573Z,9.47
2019-03-24T00:19:15.500Z,9.07
2019-03-24T00:21:46.184Z,7.17
2019-03-24T00:24:17.012Z,14.13
2019-03-24T00:26:47.847Z,8.23
2019-03-24T00:29:18.754Z,8.07
2019-03-24T00:31:49.556Z,6.83
2019-03-24T00:34:20.484Z,8.13
2019-03-24T00:36:51.365Z,8.70
2019-03-24T00:39:23.226Z,9.80
2019-03-24T00:41:54.061Z,11.03
2019-03-24T00:44:24.917Z,7.20
2019-03-24T00:46:55.572Z,9.23
2019-03-24T00:49:26.552Z,11.70
2019-03-24T00:51:57.409Z,8.40
2019-03-24T00:54:28.143Z,9.20
2019-03-24T00:56:59.166Z,7.67
2019-03-24T00:59:30.150Z,8.67
2019-03-24T01:02:01.059Z,7.47
2019-03-24T01:04:32.045Z,7.53
2019-03-24T01:07:02.918Z,8.13
2019-03-24T01:09:33.835Z,9.63
2019-03-24T01:12:04.921Z,8.77
2019-03-24T01:14:35.587Z,9.47
2019-03-24T01:17:06.543Z,9.10
2019-03-24T01:19:37.479Z,9.83
2019-03-24T01:22:08.467Z,9.10
2019-03-24T01:24:39.146Z,8.77
2019-03-24T01:27:09.970Z,6.73
2019-03-24T01:29:40.775Z,9.50
2019-03-24T01:32:11.869Z,8.03
2019-03-24T01:34:42.649Z,7.93
2019-03-24T01:37:13.411Z,8.60
2019-03-24T01:39:44.161Z,8.10
2019-03-24T01:42:14.911Z,9.47
2019-03-24T01:44:45.753Z,9.43
2019-03-24T01:47:16.524Z,8.77
2019-03-24T01:49:47.257Z,6.97
2019-03-24T01:52:17.922Z,6.57
2019-03-24T01:54:48.654Z,9.67
2019-03-24T01:57:19.459Z,7.67
2019-03-24T01:59:50.208Z,6.97
2019-03-24T02:02:21.462Z,7.87
2019-03-24T02:04:52.277Z,10.90
2019-03-24T02:07:23.055Z,9.80
2019-03-24T02:09:53.938Z,7.67
2019-03-24T02:12:24.876Z,9.20
2019-03-24T02:14:55.552Z,8.43
2019-03-24T02:17:26.357Z,8.00
2019-03-24T02:19:57.123Z,9.10
2019-03-24T02:22:28.028Z,7.20
2019-03-24T02:24:58.954Z,8.13
2019-03-24T02:27:30.827Z,8.30
2019-03-24T02:30:01.521Z,9.37
2019-03-24T02:32:32.251Z,9.23
2019-03-24T02:35:03.510Z,8.57
2019-03-24T02:37:34.311Z,7.50
2019-03-24T02:40:04.912Z,7.80
2019-03-24T02:42:35.669Z,8.47
2019-03-24T02:45:06.833Z,6.57
2019-03-24T02:47:37.713Z,9.30
2019-03-24T02:50:10.232Z,9.33
2019-03-24T02:52:41.139Z,9.03
2019-03-24T02:55:12.422Z,10.07
2019-03-24T02:57:44.962Z,7.00
2019-03-24T03:00:16.343Z,8.70
2019-03-24T03:02:47.159Z,10.97
2019-03-24T03:05:18.171Z,7.53
2019-03-24T03:07:49.055Z,7.47
2019-03-24T03:10:20.372Z,7.97
2019-03-24T03:12:51.165Z,10.60
2019-03-24T03:15:21.875Z,7.80
2019-03-24T03:17:52.784Z,7.33
2019-03-24T03:20:23.604Z,7.63
2019-03-24T03:22:54.289Z,7.63
2019-03-24T03:25:25.028Z,10.60
2019-03-24T03:27:55.907Z,8.67
2019-03-24T03:30:26.593Z,9.23
2019-03-24T03:32:57.349Z,7.97
2019-03-24T03:35:28.121Z,6.40
2019-03-24T03:38:00.802Z,7.77
2019-03-24T03:40:50.073Z,9.30
2019-03-24T03:43:20.905Z,9.80
2019-03-24T03:45:51.626Z,8.57
2019-03-24T03:48:23.861Z,8.70
2019-03-24T03:50:54.836Z,8.30
2019-03-24T03:53:25.528Z,9.80
2019-03-24T03:55:56.260Z,6.93
2019-03-24T03:58:27.153Z,7.17
2019-03-24T04:00:58.090Z,10.33
2019-03-24T04:03:28.825Z,10.97
2019-03-24T04:05:59.613Z,7.23
2019-03-24T04:08:31.377Z,7.00
2019-03-24T04:11:02.262Z,9.40
2019-03-24T04:13:32.931Z,7.70
2019-03-24T04:16:03.814Z,7.23
2019-03-24T04:18:34.671Z,8.67
2019-03-24T04:21:05.587Z,7.97
2019-03-24T04:23:36.288Z,9.17
2019-03-24T04:26:07.062Z,8.73
2019-03-24T04:28:37.908Z,9.27
2019-03-24T04:31:08.740Z,11.10
2019-03-24T04:33:39.784Z,7.97
2019-03-24T04:36:10.759Z,9.40
2019-03-24T04:38:42.772Z,9.13
2019-03-24T04:41:14.324Z,10.37
2019-03-24T04:43:45.236Z,8.03
2019-03-24T04:46:15.996Z,8.10
2019-03-24T04:48:46.955Z,6.23
2019-03-24T04:51:17.643Z,10.57
2019-03-24T04:53:48.375Z,12.70
2019-03-24T04:56:20.926Z,8.87
2019-03-24T04:58:54.905Z,10.93
2019-03-24T05:01:25.728Z,6.40
2019-03-24T05:03:56.475Z,8.50
2019-03-24T05:06:27.325Z,8.77
2019-03-24T05:08:59.410Z,8.80
2019-03-24T05:11:30.212Z,7.53
2019-03-24T05:14:01.748Z,6.80
2019-03-24T05:16:32.580Z,8.83
2019-03-24T05:19:03.497Z,11.13
2019-03-24T05:21:34.367Z,7.43
2019-03-24T05:24:05.068Z,5.73
2019-03-24T05:26:35.791Z,6.23
2019-03-24T05:29:06.719Z,6.77
2019-03-24T05:31:37.724Z,7.73
2019-03-24T05:34:08.402Z,8.47
2019-03-24T05:36:39.180Z,7.83
2019-03-24T05:39:11.088Z,9.47
2019-03-24T05:41:41.847Z,10.33
2019-03-24T05:44:12.867Z,6.77
2019-03-24T05:46:43.769Z,6.50
2019-03-24T05:49:14.455Z,6.90
2019-03-24T05:51:45.091Z,8.57
2019-03-24T05:54:15.808Z,9.57
2019-03-24T05:56:46.809Z,9.13
2019-03-24T05:59:18.722Z,6.40
2019-03-24T06:01:49.606Z,6.20
2019-03-24T06:04:20.388Z,6.23
2019-03-24T06:06:51.106Z,6.77
2019-03-24T06:09:21.856Z,10.10
2019-03-24T06:11:52.747Z,8.07
2019-03-24T06:14:23.478Z,6.73
2019-03-24T06:16:54.380Z,8.87
2019-03-24T06:19:25.254Z,6.30
2019-03-24T06:21:56.037Z,8.60
2019-03-24T06:24:26.830Z,8.13
2019-03-24T06:26:59.031Z,9.87
2019-03-24T06:29:29.895Z,9.03
2019-03-24T06:32:00.781Z,8.73
2019-03-24T06:34:33.414Z,10.77
2019-03-24T06:37:04.385Z,8.00
2019-03-24T06:39:35.223Z,6.53
2019-03-24T06:42:06.014Z,7.10
2019-03-24T06:44:37.917Z,7.17
2019-03-24T06:47:08.711Z,9.20
2019-03-24T06:49:39.336Z,7.67
2019-03-24T06:52:10.271Z,7.63
2019-03-24T06:54:41.047Z,7.43
2019-03-24T06:57:11.796Z,6.17
2019-03-24T06:59:42.612Z,7.77
2019-03-24T07:02:13.363Z,6.73
2019-03-24T07:04:44.027Z,7.00
2019-03-24T07:07:14.788Z,7.47
2019-03-24T07:09:45.804Z,9.07
2019-03-24T07:12:16.438Z,6.07
2019-03-24T07:14:47.099Z,7.57
2019-03-24T07:17:18.697Z,6.90
2019-03-24T07:19:49.378Z,9.33
2019-03-24T07:22:20.547Z,7.57
2019-03-24T07:24:51.384Z,8.63
2019-03-24T07:27:22.195Z,6.87
2019-03-24T07:29:52.979Z,7.90
2019-03-24T07:32:23.866Z,8.30
2019-03-24T07:34:54.580Z,7.53
2019-03-24T07:37:25.482Z,9.37
2019-03-24T07:39:56.173Z,11.77
2019-03-24T07:42:27.055Z,7.77
2019-03-24T07:44:58.031Z,10.00
2019-03-24T07:47:28.863Z,10.33
2019-03-24T07:49:59.699Z,9.57
2019-03-24T07:52:30.705Z,9.57
2019-03-24T07:55:01.420Z,10.97
2019-03-24T07:57:32.130Z,11.33
2019-03-24T08:00:02.987Z,9.43
2019-03-24T08:02:33.701Z,8.67
2019-03-24T08:05:04.659Z,8.80
2019-03-24T08:07:35.525Z,11.00
2019-03-24T08:10:06.872Z,15.50
2019-03-24T08:12:37.761Z,9.47
2019-03-24T08:15:08.908Z,14.23
2019-03-24T08:17:39.970Z,10.23
2019-03-24T08:20:12.327Z,8.23
2019-03-24T08:22:43.259Z,13.80
2019-03-24T08:25:14.138Z,12.37
2019-03-24T08:27:45.192Z,8.93
2019-03-24T08:30:19.326Z,7.63
2019-03-24T08:32:50.108Z,10.03
2019-03-24T08:35:20.719Z,9.40
2019-03-24T08:37:51.657Z,7.47
2019-03-24T08:40:22.435Z,11.33
2019-03-24T08:42:53.169Z,10.07
2019-03-24T08:45:30.849Z,8.60
2019-03-24T08:48:01.661Z,9.27
2019-03-24T08:50:32.538Z,10.67
2019-03-24T08:53:03.388Z,8.47
2019-03-24T08:55:34.086Z,10.63
2019-03-24T08:58:04.944Z,10.10
2019-03-24T09:00:35.628Z,7.47
2019-03-24T09:03:06.478Z,9.77
2019-03-24T09:05:37.336Z,7.90
2019-03-24T09:08:08.291Z,30.43
2019-03-24T09:10:39.025Z,9.93
2019-03-24T09:13:09.758Z,17.30
2019-03-24T09:15:40.368Z,10.27
2019-03-24T09:18:11.451Z,11.33
2019-03-24T09:20:42.329Z,7.57
2019-03-24T09:23:19.022Z,10.83
2019-03-24T09:25:49.678Z,8.20
2019-03-24T09:28:20.479Z,9.87
2019-03-24T09:30:51.323Z,12.10
2019-03-24T09:33:22.035Z,8.47
2019-03-24T09:35:52.766Z,9.30
2019-03-24T09:38:23.504Z,8.40
2019-03-24T09:40:54.319Z,8.20
2019-03-24T09:43:25.050Z,8.53
2019-03-24T09:45:56.303Z,8.43
2019-03-24T09:48:31.566Z,7.20
2019-03-24T09:51:01.990Z,8.57
2019-03-24T09:53:32.391Z,10.07
2019-03-24T09:56:02.790Z,13.30
2019-03-24T09:58:33.186Z,8.33
2019-03-24T10:01:03.567Z,8.87
2019-03-24T10:03:33.968Z,8.00
2019-03-24T10:06:04.456Z,9.77
2019-03-24T10:08:34.917Z,6.40
2019-03-24T10:11:05.704Z,9.00
2019-03-24T10:13:36.488Z,11.37
2019-03-24T10:16:06.890Z,7.47
2019-03-24T10:18:37.381Z,5.20
2019-03-24T10:21:08.381Z,7.57
2019-03-24T10:23:38.762Z,8.00
2019-03-24T10:26:09.134Z,9.03
2019-03-24T10:28:39.539Z,7.17
2019-03-24T10:31:09.919Z,7.90
2019-03-24T10:33:40.311Z,11.77
2019-03-24T10:36:10.714Z,7.63
2019-03-24T10:38:41.272Z,9.23
2019-03-24T10:41:11.800Z,8.80
2019-03-24T10:43:42.568Z,6.97
2019-03-24T10:46:13.164Z,8.30
2019-03-24T10:48:44.407Z,7.77
2019-03-24T10:51:14.813Z,10.03
2019-03-24T10:53:45.372Z,8.80
2019-03-24T10:56:15.767Z,7.47
2019-03-24T10:58:46.198Z,8.03
2019-03-24T11:01:17.142Z,7.33
2019-03-24T11:03:47.889Z,8.50
2019-03-24T11:06:18.785Z,8.93
2019-03-24T11:08:49.768Z,8.80
2019-03-24T11:11:20.654Z,7.73
2019-03-24T11:13:51.442Z,8.70
2019-03-24T11:16:22.155Z,10.13
2019-03-24T11:18:53.175Z,7.70
2019-03-24T11:21:24.152Z,7.80
2019-03-24T11:23:55.092Z,9.03
2019-03-24T11:26:25.674Z,7.60
2019-03-24T11:28:56.560Z,7.57
2019-03-24T11:31:27.191Z,8.77
2019-03-24T11:33:58.091Z,11.00
2019-03-24T11:36:28.844Z,12.97
2019-03-24T11:38:59.662Z,8.17
2019-03-24T11:41:30.403Z,8.43
2019-03-24T11:44:01.068Z,7.93
2019-03-24T11:46:32.062Z,9.40
2019-03-24T11:49:03.047Z,8.57
2019-03-24T11:51:33.882Z,8.53
2019-03-24T11:54:04.263Z,6.87
2019-03-24T11:56:34.687Z,8.23
2019-03-24T11:59:05.164Z,9.35
2019-03-24T12:01:38.491Z,7.37
2019-03-24T12:04:07.609Z,10.77
2019-03-24T12:06:38.016Z,8.63
2019-03-24T12:09:09.159Z,8.18
2019-03-24T12:11:39.554Z,10.25
2019-03-24T12:14:09.936Z,10.23
2019-03-24T12:16:40.316Z,14.30
2019-03-24T12:19:10.911Z,9.93
2019-03-24T12:21:41.394Z,10.45
2019-03-24T12:24:11.924Z,11.75
2019-03-24T12:26:42.369Z,10.72
2019-03-24T12:29:12.927Z,10.23
2019-03-24T12:31:43.410Z,10.15
2019-03-24T12:34:13.927Z,12.80
2019-03-24T12:36:44.675Z,10.23
2019-03-24T12:39:15.199Z,10.38
2019-03-24T12:41:45.739Z,14.43
2019-03-24T12:44:16.227Z,13.10
2019-03-24T12:46:46.685Z,13.70
2019-03-24T12:49:17.283Z,11.83
2019-03-24T12:51:48.822Z,13.40
2019-03-24T12:54:19.296Z,14.33
2019-03-24T12:56:49.871Z,13.20
2019-03-24T12:59:21.642Z,12.58
2019-03-24T13:01:52.971Z,12.93
2019-03-24T13:04:23.475Z,15.05
2019-03-24T13:06:53.856Z,12.73
2019-03-24T13:09:24.298Z,13.05
2019-03-24T13:11:54.731Z,14.83
2019-03-24T13:14:25.135Z,14.43
2019-03-24T13:16:55.515Z,12.03
2019-03-24T13:19:32.634Z,12.85
2019-03-24T13:22:04.346Z,13.78
2019-03-24T13:24:37.938Z,12.45
2019-03-24T13:27:10.288Z,11.38
2019-03-24T13:29:43.366Z,13.32
2019-03-24T13:32:18.127Z,13.62
2019-03-24T13:34:50.006Z,14.65
2019-03-24T13:37:24.831Z,15.08
2019-03-24T13:39:55.392Z,11.53
2019-03-24T13:42:25.854Z,12.35
2019-03-24T13:44:56.305Z,9.68
2019-03-24T13:47:26.975Z,10.18
2019-03-24T13:49:57.512Z,13.25
2019-03-24T13:52:27.975Z,12.53
2019-03-24T13:54:58.505Z,10.45
2019-03-24T13:57:29.128Z,10.63
2019-03-24T13:59:59.663Z,10.40
2019-03-24T14:02:30.223Z,11.43
2019-03-24T14:05:00.824Z,12.37
2019-03-24T14:07:31.419Z,11.68
2019-03-24T14:10:01.946Z,10.65
2019-03-24T14:12:32.534Z,10.60
2019-03-24T14:15:03.127Z,11.33
2019-03-24T14:17:33.770Z,11.55
2019-03-24T14:20:04.500Z,10.03
2019-03-24T14:22:34.901Z,11.73
2019-03-24T14:25:05.732Z,11.60
2019-03-24T14:27:37.123Z,11.03
2019-03-24T14:30:08.231Z,11.75
2019-03-24T14:32:38.800Z,11.03
2019-03-24T14:35:09.633Z,10.00
2019-03-24T14:37:41.122Z,10.50
2019-03-24T14:40:13.144Z,10.23
2019-03-24T14:42:43.591Z,8.38
2019-03-24T14:45:14.310Z,13.62
2019-03-24T14:47:44.823Z,10.25
2019-03-24T14:50:15.965Z,10.13
2019-03-24T14:52:46.407Z,9.45
2019-03-24T14:55:16.856Z,8.88
2019-03-24T14:57:47.551Z,8.03
2019-03-24T15:00:21.767Z,10.93
2019-03-24T15:02:52.455Z,9.80
2019-03-24T15:05:23.166Z,10.30
2019-03-24T15:07:53.988Z,11.88
2019-03-24T15:10:24.455Z,13.53
2019-03-24T15:12:54.915Z,14.23
2019-03-24T15:15:25.350Z,12.00
2019-03-24T15:17:55.882Z,12.70
2019-03-24T15:20:26.384Z,12.23
2019-03-24T15:22:56.934Z,9.45
2019-03-24T15:25:27.487Z,11.40
2019-03-24T15:27:59.120Z,10.30
2019-03-24T15:30:29.583Z,10.68
2019-03-24T15:32:59.975Z,12.98
2019-03-24T15:35:30.404Z,11.12
2019-03-24T15:38:08.163Z,11.57
2019-03-24T15:40:33.077Z,11.95
2019-03-24T15:43:03.484Z,11.73
2019-03-24T15:45:33.887Z,13.17
2019-03-24T15:48:04.584Z,14.50
2019-03-24T15:50:35.091Z,13.43
2019-03-24T15:53:05.497Z,14.07
2019-03-24T15:55:35.899Z,12.00
2019-03-24T15:58:06.496Z,11.57
2019-03-24T16:00:47.817Z,10.23
2019-03-24T16:03:18.799Z,9.50
2019-03-24T16:05:49.972Z,8.17
2019-03-24T16:08:20.593Z,9.90
2019-03-24T16:10:50.983Z,10.50
2019-03-24T16:13:21.391Z,10.27
2019-03-24T16:15:51.880Z,11.87
2019-03-24T16:18:22.274Z,13.07
2019-03-24T16:20:52.685Z,12.90
2019-03-24T16:23:23.082Z,15.80
2019-03-24T16:25:55.674Z,11.37
2019-03-24T16:28:25.904Z,12.87
2019-03-24T16:30:56.279Z,12.30
2019-03-24T16:33:26.706Z,10.93
2019-03-24T16:35:57.233Z,11.30
2019-03-24T16:38:27.664Z,9.83
2019-03-24T16:40:58.204Z,12.70
2019-03-24T16:43:28.736Z,12.10
2019-03-24T16:45:59.179Z,14.50
2019-03-24T16:48:36.790Z,15.43
2019-03-24T16:51:02.596Z,14.67
2019-03-24T16:53:32.987Z,16.47
2019-03-24T16:56:03.951Z,13.27
2019-03-24T16:58:34.452Z,13.63
2019-03-24T17:01:05.042Z,13.80
2019-03-24T17:03:35.459Z,16.27
2019-03-24T17:06:06.083Z,18.60
2019-03-24T17:08:36.670Z,15.93
2019-03-24T17:11:07.155Z,14.80
2019-03-24T17:13:38.945Z,16.40
2019-03-24T17:16:09.897Z,17.27
2019-03-24T17:18:40.691Z,16.37
2019-03-24T17:21:11.571Z,14.53
2019-03-24T17:23:43.327Z,13.23
2019-03-24T17:26:14.698Z,14.97
2019-03-24T17:28:46.980Z,12.33
2019-03-24T17:31:17.887Z,12.17
2019-03-24T17:33:48.475Z,11.43
2019-03-24T17:36:21.434Z,14.93
2019-03-24T17:38:52.143Z,13.10
2019-03-24T17:41:23.155Z,15.60
2019-03-24T17:44:02.886Z,18.17
2019-03-24T17:46:26.207Z,13.47
2019-03-24T17:48:57.052Z,11.47
2019-03-24T17:51:27.967Z,12.77
2019-03-24T17:53:58.911Z,15.07
2019-03-24T17:56:29.840Z,14.73
2019-03-24T17:59:00.696Z,12.00
2019-03-24T18:01:31.504Z,15.97
2019-03-24T18:04:02.552Z,14.90
2019-03-24T18:06:33.506Z,17.60
2019-03-24T18:09:06.073Z,14.07
2019-03-24T18:11:36.959Z,15.23
2019-03-24T18:14:07.643Z,15.17
2019-03-24T18:16:38.529Z,17.70
2019-03-24T18:19:09.408Z,17.63
2019-03-24T18:21:40.146Z,17.63
2019-03-24T18:24:10.876Z,16.13
2019-03-24T18:26:41.576Z,17.37
2019-03-24T18:29:13.575Z,20.77
2019-03-24T18:31:44.415Z,20.77
2019-03-24T18:34:15.288Z,23.07
2019-03-24T18:36:46.050Z,21.03
2019-03-24T18:39:16.921Z,19.30
2019-03-24T18:41:47.608Z,23.00
2019-03-24T18:44:18.657Z,17.50
2019-03-24T18:46:49.324Z,18.13
2019-03-24T18:49:20.983Z,20.63
2019-03-24T18:51:51.820Z,22.93
2019-03-24T18:54:22.550Z,20.97
2019-03-24T18:56:53.448Z,20.87
2019-03-24T18:59:24.285Z,24.27
2019-03-24T19:01:54.911Z,20.60
2019-03-24T19:04:25.857Z,23.83
2019-03-24T19:06:56.590Z,22.93
2019-03-24T19:09:27.465Z,20.73
2019-03-24T19:11:58.200Z,24.93
2019-03-24T19:14:28.934Z,20.07
2019-03-24T19:16:59.534Z,20.27
2019-03-24T19:19:30.486Z,22.67
2019-03-24T19:22:01.303Z,18.80
2019-03-24T19:24:32.888Z,25.33
2019-03-24T19:27:03.533Z,18.00
2019-03-24T19:29:34.207Z,21.70
2019-03-24T19:32:06.379Z,20.33
2019-03-24T19:34:37.370Z,23.80
2019-03-24T19:37:08.304Z,23.07
2019-03-24T19:39:39.141Z,23.40
2019-03-24T19:42:09.814Z,22.53
2019-03-24T19:44:40.719Z,21.50
2019-03-24T19:47:11.445Z,19.23
2019-03-24T19:49:42.345Z,21.83
2019-03-24T19:52:13.515Z,22.63
2019-03-24T19:54:44.161Z,19.53
2019-03-24T19:57:15.151Z,18.50
2019-03-24T19:59:45.970Z,19.17
2019-03-24T20:02:16.668Z,22.10
2019-03-24T20:04:47.379Z,23.63
2019-03-24T20:07:17.989Z,21.90
2019-03-24T20:09:48.540Z,19.27
2019-03-24T20:12:37.667Z,21.90
2019-03-24T20:15:08.930Z,27.17
2019-03-24T20:17:39.815Z,22.00
2019-03-24T20:20:10.757Z,22.73
2019-03-24T20:22:41.463Z,25.47
2019-03-24T20:25:12.283Z,24.60
2019-03-24T20:27:43.031Z,23.73
2019-03-24T20:30:14.151Z,21.50
2019-03-24T20:32:44.829Z,24.73
2019-03-24T20:35:15.727Z,26.73
2019-03-24T20:37:46.603Z,21.93
2019-03-24T20:40:17.655Z,26.43
2019-03-24T20:42:48.483Z,25.07
2019-03-24T20:45:19.192Z,25.53
2019-03-24T20:47:50.159Z,23.57
2019-03-24T20:50:20.894Z,24.80
2019-03-24T20:53:03.173Z,31.03
2019-03-24T20:55:24.005Z,25.90
2019-03-24T20:57:54.840Z,24.77
2019-03-24T21:00:35.245Z,30.90
2019-03-24T21:03:07.511Z,29.10
2019-03-24T21:05:38.860Z,34.03
2019-03-24T21:08:09.869Z,30.40
2019-03-24T21:10:40.949Z,28.03
2019-03-24T21:13:12.651Z,33.67
2019-03-24T21:15:43.489Z,30.57
2019-03-24T21:18:14.735Z,28.47
2019-03-24T21:20:45.980Z,32.83
2019-03-24T21:23:16.849Z,33.20
2019-03-24T21:25:47.792Z,32.83
2019-03-24T21:28:19.726Z,34.47
2019-03-24T21:30:50.428Z,29.97
2019-03-24T21:33:21.086Z,31.63
2019-03-24T21:35:51.952Z,39.17
2019-03-24T21:38:22.451Z,38.40
2019-03-24T21:40:52.876Z,33.63
2019-03-24T21:43:23.308Z,36.97
2019-03-24T21:45:54.071Z,38.53
2019-03-24T21:48:24.930Z,33.20
2019-03-24T21:50:55.619Z,39.47
2019-03-24T21:53:26.448Z,33.73
2019-03-24T21:55:57.192Z,35.17
2019-03-24T21:58:28.144Z,37.13
2019-03-24T22:00:59.124Z,36.87
2019-03-24T22:03:29.895Z,40.43
2019-03-24T22:06:00.828Z,38.33
2019-03-24T22:08:32.689Z,42.03
2019-03-24T22:11:03.875Z,37.10
2019-03-24T22:13:34.623Z,35.23
2019-03-24T22:16:05.813Z,39.33
2019-03-24T22:18:36.552Z,38.57
2019-03-24T22:21:07.443Z,37.87
2019-03-24T22:23:38.345Z,37.87
2019-03-24T22:26:09.284Z,39.03
2019-03-24T22:28:40.071Z,41.30
2019-03-24T22:31:10.745Z,40.13
2019-03-24T22:33:41.668Z,38.20
2019-03-24T22:36:12.507Z,42.03
2019-03-24T22:38:44.343Z,44.00
2019-03-24T22:41:15.175Z,42.00
2019-03-24T22:43:45.807Z,41.03
2019-03-24T22:46:16.599Z,42.00
2019-03-24T22:48:47.607Z,41.80
2019-03-24T22:51:18.546Z,40.60
2019-03-24T22:53:49.278Z,44.50
2019-03-24T22:56:20.127Z,41.67
2019-03-24T22:58:51.038Z,41.10
2019-03-24T23:01:22.007Z,41.67
2019-03-24T23:03:53.013Z,46.40
2019-03-24T23:06:23.881Z,43.57
2019-03-24T23:08:54.824Z,46.07
2019-03-24T23:11:25.561Z,44.00
2019-03-24T23:13:56.587Z,45.67
2019-03-24T23:16:34.216Z,47.70
2019-03-24T23:19:05.158Z,43.47
2019-03-24T23:21:36.086Z,49.27
2019-03-24T23:24:15.390Z,46.10
2019-03-24T23:26:39.818Z,46.10
2019-03-24T23:29:11.753Z,47.93
2019-03-24T23:31:42.583Z,47.97
2019-03-24T23:34:13.344Z,46.97
2019-03-24T23:36:44.252Z,48.43
2019-03-24T23:39:15.398Z,49.87
2019-03-24T23:41:46.440Z,48.63
2019-03-24T23:44:17.251Z,49.37
2019-03-24T23:46:47.880Z,51.83
2019-03-24T23:49:18.871Z,52.47
2019-03-24T23:51:49.643Z,52.13
2019-03-24T23:54:27.094Z,57.97
2019-03-24T23:56:53.072Z,55.13
2019-03-24T23:59:23.932Z,53.80
